sensor_id;sensor_type;location;lat;lon;timestamp;P1;durP1;ratioP1;P2;durP2;ratioP2
58208;SDS011;44006;52.028;4.696;2024-03-22T00:02:13;61.80;;;33.17;;
58208;SDS011;44006;52.028;4.696;2024-03-22T00:04:39;56.90;;;33.13;;
58208;SDS011;44006;52.028;4.696;2024-03-22T00:07:04;61.57;;;34.70;;
58208;SDS011;44006;52.028;4.696;2024-03-22T00:09:29;59.95;;;33.42;;
58208;SDS011;44006;52.028;4.696;2024-03-22T00:11:54;60.00;;;32.92;;
58208;SDS011;44006;52.028;4.696;2024-03-22T00:14:20;64.65;;;32.63;;
58208;SDS011;44006;52.028;4.696;2024-03-22T00:16:45;63.63;;;33.77;;
58208;SDS011;44006;52.028;4.696;2024-03-22T00:19:10;62.67;;;33.93;;
58208;SDS011;44006;52.028;4.696;2024-03-22T00:21:35;63.87;;;33.97;;
58208;SDS011;44006;52.028;4.696;2024-03-22T00:24:00;62.33;;;34.17;;
58208;SDS011;44006;52.028;4.696;2024-03-22T00:26:26;62.55;;;33.50;;
58208;SDS011;44006;52.028;4.696;2024-03-22T00:28:51;59.67;;;33.17;;
58208;SDS011;44006;52.028;4.696;2024-03-22T00:31:17;63.30;;;32.00;;
58208;SDS011;44006;52.028;4.696;2024-03-22T00:33:42;62.85;;;31.35;;
58208;SDS011;44006;52.028;4.696;2024-03-22T00:36:07;62.87;;;31.93;;
58208;SDS011;44006;52.028;4.696;2024-03-22T00:38:33;56.63;;;31.45;;
58208;SDS011;44006;52.028;4.696;2024-03-22T00:40:58;65.67;;;33.30;;
58208;SDS011;44006;52.028;4.696;2024-03-22T00:43:23;61.22;;;32.20;;
58208;SDS011;44006;52.028;4.696;2024-03-22T00:45:48;65.37;;;33.50;;
58208;SDS011;44006;52.028;4.696;2024-03-22T00:48:13;64.60;;;34.07;;
58208;SDS011;44006;52.028;4.696;2024-03-22T00:50:39;58.73;;;33.43;;
58208;SDS011;44006;52.028;4.696;2024-03-22T00:53:04;66.82;;;37.28;;
58208;SDS011;44006;52.028;4.696;2024-03-22T00:55:30;73.88;;;38.53;;
58208;SDS011;44006;52.028;4.696;2024-03-22T00:57:56;72.20;;;38.28;;
58208;SDS011;44006;52.028;4.696;2024-03-22T01:00:21;73.67;;;38.80;;
58208;SDS011;44006;52.028;4.696;2024-03-22T01:02:46;74.23;;;38.73;;
58208;SDS011;44006;52.028;4.696;2024-03-22T01:05:11;68.80;;;38.70;;
58208;SDS011;44006;52.028;4.696;2024-03-22T01:07:36;69.75;;;38.25;;
58208;SDS011;44006;52.028;4.696;2024-03-22T01:10:02;77.70;;;41.17;;
58208;SDS011;44006;52.028;4.696;2024-03-22T01:12:28;71.55;;;38.75;;
58208;SDS011;44006;52.028;4.696;2024-03-22T01:14:53;74.27;;;38.90;;
58208;SDS011;44006;52.028;4.696;2024-03-22T01:17:19;74.28;;;40.05;;
58208;SDS011;44006;52.028;4.696;2024-03-22T01:19:44;80.70;;;41.67;;
58208;SDS011;44006;52.028;4.696;2024-03-22T01:22:09;81.78;;;42.92;;
58208;SDS011;44006;52.028;4.696;2024-03-22T01:24:34;80.70;;;43.07;;
58208;SDS011;44006;52.028;4.696;2024-03-22T01:26:59;82.57;;;42.53;;
58208;SDS011;44006;52.028;4.696;2024-03-22T01:29:24;85.07;;;43.07;;
58208;SDS011;44006;52.028;4.696;2024-03-22T01:31:50;84.30;;;45.30;;
58208;SDS011;44006;52.028;4.696;2024-03-22T01:34:15;90.17;;;44.60;;
58208;SDS011;44006;52.028;4.696;2024-03-22T01:36:40;80.83;;;42.90;;
58208;SDS011;44006;52.028;4.696;2024-03-22T01:39:06;76.93;;;41.63;;
58208;SDS011;44006;52.028;4.696;2024-03-22T01:41:31;79.20;;;40.20;;
58208;SDS011;44006;52.028;4.696;2024-03-22T01:43:56;82.20;;;41.63;;
58208;SDS011;44006;52.028;4.696;2024-03-22T01:46:21;81.37;;;41.83;;
58208;SDS011;44006;52.028;4.696;2024-03-22T01:48:46;88.25;;;43.25;;
58208;SDS011;44006;52.028;4.696;2024-03-22T01:51:12;87.32;;;41.97;;
58208;SDS011;44006;52.028;4.696;2024-03-22T01:53:37;92.78;;;43.13;;
58208;SDS011;44006;52.028;4.696;2024-03-22T01:56:02;81.80;;;40.65;;
58208;SDS011;44006;52.028;4.696;2024-03-22T01:58:28;80.15;;;41.25;;
58208;SDS011;44006;52.028;4.696;2024-03-22T02:00:53;81.57;;;40.25;;
58208;SDS011;44006;52.028;4.696;2024-03-22T02:03:18;78.17;;;39.03;;
58208;SDS011;44006;52.028;4.696;2024-03-22T02:05:44;79.57;;;38.43;;
58208;SDS011;44006;52.028;4.696;2024-03-22T02:08:09;79.17;;;38.67;;
58208;SDS011;44006;52.028;4.696;2024-03-22T02:10:34;68.32;;;36.45;;
58208;SDS011;44006;52.028;4.696;2024-03-22T02:12:59;64.43;;;33.35;;
58208;SDS011;44006;52.028;4.696;2024-03-22T02:15:25;62.27;;;33.87;;
58208;SDS011;44006;52.028;4.696;2024-03-22T02:17:50;55.90;;;31.63;;
58208;SDS011;44006;52.028;4.696;2024-03-22T02:20:15;60.03;;;30.80;;
58208;SDS011;44006;52.028;4.696;2024-03-22T02:22:40;55.58;;;30.05;;
58208;SDS011;44006;52.028;4.696;2024-03-22T02:25:05;53.60;;;29.52;;
58208;SDS011;44006;52.028;4.696;2024-03-22T02:27:32;60.50;;;29.77;;
58208;SDS011;44006;52.028;4.696;2024-03-22T02:29:58;60.03;;;30.67;;
58208;SDS011;44006;52.028;4.696;2024-03-22T02:32:23;50.97;;;29.47;;
58208;SDS011;44006;52.028;4.696;2024-03-22T02:34:48;55.73;;;30.27;;
58208;SDS011;44006;52.028;4.696;2024-03-22T02:37:13;52.03;;;28.97;;
58208;SDS011;44006;52.028;4.696;2024-03-22T02:39:38;53.90;;;30.37;;
58208;SDS011;44006;52.028;4.696;2024-03-22T02:42:04;53.38;;;29.08;;
58208;SDS011;44006;52.028;4.696;2024-03-22T02:44:29;55.92;;;28.85;;
58208;SDS011;44006;52.028;4.696;2024-03-22T02:46:54;59.47;;;29.27;;
58208;SDS011;44006;52.028;4.696;2024-03-22T02:49:19;49.60;;;27.67;;
58208;SDS011;44006;52.028;4.696;2024-03-22T02:51:44;52.05;;;27.67;;
58208;SDS011;44006;52.028;4.696;2024-03-22T02:54:10;47.13;;;27.85;;
58208;SDS011;44006;52.028;4.696;2024-03-22T02:56:35;49.88;;;27.98;;
58208;SDS011;44006;52.028;4.696;2024-03-22T02:59:00;54.92;;;28.15;;
58208;SDS011;44006;52.028;4.696;2024-03-22T03:01:26;44.90;;;26.47;;
58208;SDS011;44006;52.028;4.696;2024-03-22T03:03:51;47.77;;;27.07;;
58208;SDS011;44006;52.028;4.696;2024-03-22T03:06:16;49.30;;;27.87;;
58208;SDS011;44006;52.028;4.696;2024-03-22T03:08:43;49.50;;;26.55;;
58208;SDS011;44006;52.028;4.696;2024-03-22T03:11:08;48.80;;;26.65;;
58208;SDS011;44006;52.028;4.696;2024-03-22T03:13:33;45.70;;;26.60;;
58208;SDS011;44006;52.028;4.696;2024-03-22T03:15:58;48.83;;;26.73;;
58208;SDS011;44006;52.028;4.696;2024-03-22T03:18:24;45.70;;;25.17;;
58208;SDS011;44006;52.028;4.696;2024-03-22T03:20:49;47.10;;;25.37;;
58208;SDS011;44006;52.028;4.696;2024-03-22T03:23:14;48.25;;;25.75;;
58208;SDS011;44006;52.028;4.696;2024-03-22T03:25:39;46.40;;;26.50;;
58208;SDS011;44006;52.028;4.696;2024-03-22T03:28:05;47.25;;;26.75;;
58208;SDS011;44006;52.028;4.696;2024-03-22T03:30:32;51.08;;;27.42;;
58208;SDS011;44006;52.028;4.696;2024-03-22T03:32:57;47.47;;;26.87;;
58208;SDS011;44006;52.028;4.696;2024-03-22T03:35:22;48.00;;;25.63;;
58208;SDS011;44006;52.028;4.696;2024-03-22T03:37:48;46.50;;;24.30;;
58208;SDS011;44006;52.028;4.696;2024-03-22T03:40:13;43.70;;;24.80;;
58208;SDS011;44006;52.028;4.696;2024-03-22T03:42:38;42.78;;;22.40;;
58208;SDS011;44006;52.028;4.696;2024-03-22T03:45:04;46.67;;;24.40;;
58208;SDS011;44006;52.028;4.696;2024-03-22T03:47:29;47.30;;;24.63;;
58208;SDS011;44006;52.028;4.696;2024-03-22T03:49:54;46.33;;;24.67;;
58208;SDS011;44006;52.028;4.696;2024-03-22T03:52:19;46.20;;;24.92;;
58208;SDS011;44006;52.028;4.696;2024-03-22T03:54:45;45.30;;;25.15;;
58208;SDS011;44006;52.028;4.696;2024-03-22T03:57:10;48.80;;;22.80;;
58208;SDS011;44006;52.028;4.696;2024-03-22T03:59:35;41.87;;;21.93;;
58208;SDS011;44006;52.028;4.696;2024-03-22T04:02:00;40.40;;;21.48;;
58208;SDS011;44006;52.028;4.696;2024-03-22T04:04:25;41.27;;;21.73;;
58208;SDS011;44006;52.028;4.696;2024-03-22T04:06:51;45.30;;;22.45;;
58208;SDS011;44006;52.028;4.696;2024-03-22T04:09:16;46.73;;;22.73;;
58208;SDS011;44006;52.028;4.696;2024-03-22T04:11:41;46.22;;;22.88;;
58208;SDS011;44006;52.028;4.696;2024-03-22T04:14:06;48.30;;;23.37;;
58208;SDS011;44006;52.028;4.696;2024-03-22T04:16:32;44.77;;;22.17;;
58208;SDS011;44006;52.028;4.696;2024-03-22T04:18:57;41.70;;;23.02;;
58208;SDS011;44006;52.028;4.696;2024-03-22T04:21:22;44.53;;;22.67;;
58208;SDS011;44006;52.028;4.696;2024-03-22T04:23:47;39.08;;;21.88;;
58208;SDS011;44006;52.028;4.696;2024-03-22T04:26:13;47.55;;;22.17;;
58208;SDS011;44006;52.028;4.696;2024-03-22T04:28:38;37.33;;;21.58;;
58208;SDS011;44006;52.028;4.696;2024-03-22T04:31:04;44.87;;;22.60;;
58208;SDS011;44006;52.028;4.696;2024-03-22T04:33:30;44.58;;;22.40;;
58208;SDS011;44006;52.028;4.696;2024-03-22T04:35:55;42.42;;;21.90;;
58208;SDS011;44006;52.028;4.696;2024-03-22T04:38:24;39.00;;;22.00;;
58208;SDS011;44006;52.028;4.696;2024-03-22T04:40:49;48.05;;;24.40;;
58208;SDS011;44006;52.028;4.696;2024-03-22T04:43:15;45.55;;;25.23;;
58208;SDS011;44006;52.028;4.696;2024-03-22T04:45:43;47.88;;;24.90;;
58208;SDS011;44006;52.028;4.696;2024-03-22T04:48:09;47.53;;;25.17;;
58208;SDS011;44006;52.028;4.696;2024-03-22T04:50:34;50.63;;;27.15;;
58208;SDS011;44006;52.028;4.696;2024-03-22T04:53:00;46.85;;;26.85;;
58208;SDS011;44006;52.028;4.696;2024-03-22T04:55:25;50.80;;;26.70;;
58208;SDS011;44006;52.028;4.696;2024-03-22T04:57:51;49.30;;;26.70;;
58208;SDS011;44006;52.028;4.696;2024-03-22T05:00:17;49.05;;;26.90;;
58208;SDS011;44006;52.028;4.696;2024-03-22T05:02:42;51.53;;;26.35;;
58208;SDS011;44006;52.028;4.696;2024-03-22T05:05:07;49.05;;;25.05;;
58208;SDS011;44006;52.028;4.696;2024-03-22T05:07:33;52.63;;;24.63;;
58208;SDS011;44006;52.028;4.696;2024-03-22T05:09:58;46.72;;;24.13;;
58208;SDS011;44006;52.028;4.696;2024-03-22T05:12:23;43.23;;;23.53;;
58208;SDS011;44006;52.028;4.696;2024-03-22T05:14:48;47.43;;;24.10;;
58208;SDS011;44006;52.028;4.696;2024-03-22T05:17:14;52.10;;;22.65;;
58208;SDS011;44006;52.028;4.696;2024-03-22T05:19:39;38.97;;;22.27;;
58208;SDS011;44006;52.028;4.696;2024-03-22T05:22:04;45.95;;;22.92;;
58208;SDS011;44006;52.028;4.696;2024-03-22T05:24:29;44.83;;;21.70;;
58208;SDS011;44006;52.028;4.696;2024-03-22T05:26:54;41.97;;;22.50;;
58208;SDS011;44006;52.028;4.696;2024-03-22T05:29:20;44.77;;;23.17;;
58208;SDS011;44006;52.028;4.696;2024-03-22T05:31:45;45.50;;;21.93;;
58208;SDS011;44006;52.028;4.696;2024-03-22T05:34:11;45.50;;;22.67;;
58208;SDS011;44006;52.028;4.696;2024-03-22T05:36:36;38.63;;;23.17;;
58208;SDS011;44006;52.028;4.696;2024-03-22T05:39:02;41.05;;;23.58;;
58208;SDS011;44006;52.028;4.696;2024-03-22T05:41:27;42.75;;;22.48;;
58208;SDS011;44006;52.028;4.696;2024-03-22T05:43:52;42.27;;;22.57;;
58208;SDS011;44006;52.028;4.696;2024-03-22T05:46:17;40.13;;;21.90;;
58208;SDS011;44006;52.028;4.696;2024-03-22T05:48:42;39.87;;;20.07;;
58208;SDS011;44006;52.028;4.696;2024-03-22T05:51:07;37.90;;;20.03;;
58208;SDS011;44006;52.028;4.696;2024-03-22T05:53:33;38.83;;;20.40;;
58208;SDS011;44006;52.028;4.696;2024-03-22T05:55:58;37.40;;;19.57;;
58208;SDS011;44006;52.028;4.696;2024-03-22T05:58:23;37.70;;;19.00;;
58208;SDS011;44006;52.028;4.696;2024-03-22T06:00:48;40.43;;;19.37;;
58208;SDS011;44006;52.028;4.696;2024-03-22T06:03:13;41.00;;;19.17;;
58208;SDS011;44006;52.028;4.696;2024-03-22T06:05:39;38.80;;;19.53;;
58208;SDS011;44006;52.028;4.696;2024-03-22T06:08:04;40.40;;;18.83;;
58208;SDS011;44006;52.028;4.696;2024-03-22T06:10:29;40.95;;;18.95;;
58208;SDS011;44006;52.028;4.696;2024-03-22T06:12:54;36.77;;;18.77;;
58208;SDS011;44006;52.028;4.696;2024-03-22T06:15:20;44.47;;;19.70;;
58208;SDS011;44006;52.028;4.696;2024-03-22T06:17:46;43.95;;;19.55;;
58208;SDS011;44006;52.028;4.696;2024-03-22T06:20:11;41.47;;;19.50;;
58208;SDS011;44006;52.028;4.696;2024-03-22T06:22:37;38.63;;;20.60;;
58208;SDS011;44006;52.028;4.696;2024-03-22T06:25:03;42.65;;;19.90;;
58208;SDS011;44006;52.028;4.696;2024-03-22T06:27:28;38.85;;;20.05;;
58208;SDS011;44006;52.028;4.696;2024-03-22T06:29:53;42.13;;;19.60;;
58208;SDS011;44006;52.028;4.696;2024-03-22T06:32:19;39.97;;;19.95;;
58208;SDS011;44006;52.028;4.696;2024-03-22T06:34:44;40.07;;;17.67;;
58208;SDS011;44006;52.028;4.696;2024-03-22T06:37:10;43.28;;;19.15;;
58208;SDS011;44006;52.028;4.696;2024-03-22T06:39:35;41.13;;;19.30;;
58208;SDS011;44006;52.028;4.696;2024-03-22T06:42:00;36.80;;;19.03;;
58208;SDS011;44006;52.028;4.696;2024-03-22T06:44:25;37.97;;;17.57;;
58208;SDS011;44006;52.028;4.696;2024-03-22T06:46:50;39.83;;;18.23;;
58208;SDS011;44006;52.028;4.696;2024-03-22T06:49:16;40.15;;;19.23;;
58208;SDS011;44006;52.028;4.696;2024-03-22T06:51:42;40.97;;;19.42;;
58208;SDS011;44006;52.028;4.696;2024-03-22T06:54:07;37.47;;;17.70;;
58208;SDS011;44006;52.028;4.696;2024-03-22T06:56:32;47.53;;;18.30;;
58208;SDS011;44006;52.028;4.696;2024-03-22T06:58:58;40.53;;;18.27;;
58208;SDS011;44006;52.028;4.696;2024-03-22T07:01:23;39.08;;;18.30;;
58208;SDS011;44006;52.028;4.696;2024-03-22T07:03:48;45.00;;;18.15;;
58208;SDS011;44006;52.028;4.696;2024-03-22T07:06:14;39.93;;;18.00;;
58208;SDS011;44006;52.028;4.696;2024-03-22T07:08:39;40.85;;;17.90;;
58208;SDS011;44006;52.028;4.696;2024-03-22T07:11:05;41.13;;;17.52;;
58208;SDS011;44006;52.028;4.696;2024-03-22T07:13:30;36.25;;;17.33;;
58208;SDS011;44006;52.028;4.696;2024-03-22T07:15:56;48.23;;;17.83;;
58208;SDS011;44006;52.028;4.696;2024-03-22T07:18:21;35.05;;;17.08;;
58208;SDS011;44006;52.028;4.696;2024-03-22T07:20:46;41.03;;;16.05;;
58208;SDS011;44006;52.028;4.696;2024-03-22T07:23:13;35.60;;;14.48;;
58208;SDS011;44006;52.028;4.696;2024-03-22T07:25:38;35.17;;;15.43;;
58208;SDS011;44006;52.028;4.696;2024-03-22T07:28:03;30.40;;;14.80;;
58208;SDS011;44006;52.028;4.696;2024-03-22T07:30:28;42.75;;;15.75;;
58208;SDS011;44006;52.028;4.696;2024-03-22T07:32:54;31.83;;;14.70;;
58208;SDS011;44006;52.028;4.696;2024-03-22T07:35:19;35.03;;;14.93;;
58208;SDS011;44006;52.028;4.696;2024-03-22T07:37:44;37.50;;;15.13;;
58208;SDS011;44006;52.028;4.696;2024-03-22T07:40:09;34.65;;;13.57;;
58208;SDS011;44006;52.028;4.696;2024-03-22T07:42:35;33.38;;;14.32;;
58208;SDS011;44006;52.028;4.696;2024-03-22T07:45:00;35.45;;;13.70;;
58208;SDS011;44006;52.028;4.696;2024-03-22T07:47:25;34.42;;;15.35;;
58208;SDS011;44006;52.028;4.696;2024-03-22T07:49:50;30.70;;;13.73;;
58208;SDS011;44006;52.028;4.696;2024-03-22T07:52:16;31.65;;;13.73;;
58208;SDS011;44006;52.028;4.696;2024-03-22T07:54:41;33.37;;;13.50;;
58208;SDS011;44006;52.028;4.696;2024-03-22T07:57:06;34.90;;;13.93;;
58208;SDS011;44006;52.028;4.696;2024-03-22T07:59:32;35.13;;;14.55;;
58208;SDS011;44006;52.028;4.696;2024-03-22T08:01:57;32.80;;;14.52;;
58208;SDS011;44006;52.028;4.696;2024-03-22T08:04:22;30.98;;;13.93;;
58208;SDS011;44006;52.028;4.696;2024-03-22T08:06:50;31.83;;;13.30;;
58208;SDS011;44006;52.028;4.696;2024-03-22T08:09:15;30.73;;;13.77;;
58208;SDS011;44006;52.028;4.696;2024-03-22T08:11:41;38.15;;;13.40;;
58208;SDS011;44006;52.028;4.696;2024-03-22T08:14:06;38.87;;;15.53;;
58208;SDS011;44006;52.028;4.696;2024-03-22T08:16:31;34.63;;;14.05;;
58208;SDS011;44006;52.028;4.696;2024-03-22T08:18:57;28.73;;;14.40;;
58208;SDS011;44006;52.028;4.696;2024-03-22T08:21:22;28.80;;;13.73;;
58208;SDS011;44006;52.028;4.696;2024-03-22T08:23:48;32.05;;;13.52;;
58208;SDS011;44006;52.028;4.696;2024-03-22T08:26:13;35.83;;;14.20;;
58208;SDS011;44006;52.028;4.696;2024-03-22T08:28:38;29.92;;;13.27;;
58208;SDS011;44006;52.028;4.696;2024-03-22T08:31:04;37.50;;;14.73;;
58208;SDS011;44006;52.028;4.696;2024-03-22T08:33:29;35.03;;;14.10;;
58208;SDS011;44006;52.028;4.696;2024-03-22T08:35:54;35.87;;;14.30;;
58208;SDS011;44006;52.028;4.696;2024-03-22T08:38:20;34.53;;;13.82;;
58208;SDS011;44006;52.028;4.696;2024-03-22T08:40:45;31.23;;;14.52;;
58208;SDS011;44006;52.028;4.696;2024-03-22T08:43:10;35.83;;;15.03;;
58208;SDS011;44006;52.028;4.696;2024-03-22T08:45:35;34.42;;;14.93;;
58208;SDS011;44006;52.028;4.696;2024-03-22T08:48:01;36.65;;;14.90;;
58208;SDS011;44006;52.028;4.696;2024-03-22T08:50:26;36.58;;;15.02;;
58208;SDS011;44006;52.028;4.696;2024-03-22T08:52:51;34.17;;;15.10;;
58208;SDS011;44006;52.028;4.696;2024-03-22T08:55:16;33.70;;;14.53;;
58208;SDS011;44006;52.028;4.696;2024-03-22T08:57:42;38.15;;;16.10;;
58208;SDS011;44006;52.028;4.696;2024-03-22T09:00:08;33.20;;;14.75;;
58208;SDS011;44006;52.028;4.696;2024-03-22T09:02:33;37.03;;;16.48;;
58208;SDS011;44006;52.028;4.696;2024-03-22T09:04:59;31.33;;;15.50;;
58208;SDS011;44006;52.028;4.696;2024-03-22T09:07:24;33.08;;;15.85;;
58208;SDS011;44006;52.028;4.696;2024-03-22T09:09:49;32.17;;;15.63;;
58208;SDS011;44006;52.028;4.696;2024-03-22T09:12:14;29.10;;;15.30;;
58208;SDS011;44006;52.028;4.696;2024-03-22T09:14:40;31.20;;;14.33;;
58208;SDS011;44006;52.028;4.696;2024-03-22T09:17:05;34.42;;;14.40;;
58208;SDS011;44006;52.028;4.696;2024-03-22T09:19:30;36.55;;;15.40;;
58208;SDS011;44006;52.028;4.696;2024-03-22T09:21:56;37.53;;;15.25;;
58208;SDS011;44006;52.028;4.696;2024-03-22T09:24:22;38.97;;;15.20;;
58208;SDS011;44006;52.028;4.696;2024-03-22T09:26:47;38.03;;;16.65;;
58208;SDS011;44006;52.028;4.696;2024-03-22T09:29:15;34.08;;;16.58;;
58208;SDS011;44006;52.028;4.696;2024-03-22T09:31:40;39.63;;;16.95;;
58208;SDS011;44006;52.028;4.696;2024-03-22T09:34:06;34.40;;;16.93;;
58208;SDS011;44006;52.028;4.696;2024-03-22T09:36:31;38.43;;;16.57;;
58208;SDS011;44006;52.028;4.696;2024-03-22T09:39:00;35.20;;;15.70;;
58208;SDS011;44006;52.028;4.696;2024-03-22T09:41:25;36.60;;;16.83;;
58208;SDS011;44006;52.028;4.696;2024-03-22T09:43:51;38.47;;;17.00;;
58208;SDS011;44006;52.028;4.696;2024-03-22T09:46:16;34.45;;;16.25;;
58208;SDS011;44006;52.028;4.696;2024-03-22T09:48:43;42.10;;;17.67;;
58208;SDS011;44006;52.028;4.696;2024-03-22T09:51:09;45.25;;;17.00;;
58208;SDS011;44006;52.028;4.696;2024-03-22T09:53:34;35.17;;;17.17;;
58208;SDS011;44006;52.028;4.696;2024-03-22T09:56:00;43.33;;;17.52;;
58208;SDS011;44006;52.028;4.696;2024-03-22T09:58:26;38.70;;;16.67;;
58208;SDS011;44006;52.028;4.696;2024-03-22T10:00:52;35.30;;;16.38;;
58208;SDS011;44006;52.028;4.696;2024-03-22T10:03:18;33.05;;;16.58;;
58208;SDS011;44006;52.028;4.696;2024-03-22T10:05:43;33.95;;;15.35;;
58208;SDS011;44006;52.028;4.696;2024-03-22T10:08:08;42.97;;;17.20;;
58208;SDS011;44006;52.028;4.696;2024-03-22T10:10:34;35.13;;;16.20;;
58208;SDS011;44006;52.028;4.696;2024-03-22T10:13:02;39.60;;;16.60;;
58208;SDS011;44006;52.028;4.696;2024-03-22T10:15:28;37.40;;;15.60;;
58208;SDS011;44006;52.028;4.696;2024-03-22T10:17:56;31.65;;;15.95;;
58208;SDS011;44006;52.028;4.696;2024-03-22T10:20:21;37.58;;;17.10;;
58208;SDS011;44006;52.028;4.696;2024-03-22T10:22:56;36.20;;;16.80;;
58208;SDS011;44006;52.028;4.696;2024-03-22T10:25:23;34.85;;;16.45;;
58208;SDS011;44006;52.028;4.696;2024-03-22T10:27:48;34.08;;;16.98;;
58208;SDS011;44006;52.028;4.696;2024-03-22T10:30:15;29.75;;;16.95;;
58208;SDS011;44006;52.028;4.696;2024-03-22T10:32:41;30.85;;;18.17;;
58208;SDS011;44006;52.028;4.696;2024-03-22T10:35:07;39.42;;;17.92;;
58208;SDS011;44006;52.028;4.696;2024-03-22T10:37:36;28.52;;;16.23;;
58208;SDS011;44006;52.028;4.696;2024-03-22T10:40:02;28.55;;;15.77;;
58208;SDS011;44006;52.028;4.696;2024-03-22T10:42:37;25.67;;;14.65;;
58208;SDS011;44006;52.028;4.696;2024-03-22T10:45:03;25.25;;;13.82;;
58208;SDS011;44006;52.028;4.696;2024-03-22T10:47:29;26.27;;;13.20;;
58208;SDS011;44006;52.028;4.696;2024-03-22T10:49:56;25.48;;;13.77;;
58208;SDS011;44006;52.028;4.696;2024-03-22T10:52:24;25.58;;;13.30;;
58208;SDS011;44006;52.028;4.696;2024-03-22T10:54:50;19.63;;;13.60;;
58208;SDS011;44006;52.028;4.696;2024-03-22T10:57:15;23.10;;;13.77;;
58208;SDS011;44006;52.028;4.696;2024-03-22T10:59:41;22.77;;;13.88;;
58208;SDS011;44006;52.028;4.696;2024-03-22T11:02:09;21.92;;;13.77;;
58208;SDS011;44006;52.028;4.696;2024-03-22T11:04:35;22.48;;;14.07;;
58208;SDS011;44006;52.028;4.696;2024-03-22T11:07:00;22.50;;;14.48;;
58208;SDS011;44006;52.028;4.696;2024-03-22T11:09:25;21.63;;;13.70;;
58208;SDS011;44006;52.028;4.696;2024-03-22T11:11:51;19.15;;;13.32;;
58208;SDS011;44006;52.028;4.696;2024-03-22T11:14:16;25.48;;;13.63;;
58208;SDS011;44006;52.028;4.696;2024-03-22T11:16:42;23.05;;;13.85;;
58208;SDS011;44006;52.028;4.696;2024-03-22T11:19:08;23.67;;;14.10;;
58208;SDS011;44006;52.028;4.696;2024-03-22T11:21:33;23.37;;;13.73;;
58208;SDS011;44006;52.028;4.696;2024-03-22T11:24:00;21.70;;;14.23;;
58208;SDS011;44006;52.028;4.696;2024-03-22T11:26:25;22.55;;;15.13;;
58208;SDS011;44006;52.028;4.696;2024-03-22T11:28:50;22.00;;;14.77;;
58208;SDS011;44006;52.028;4.696;2024-03-22T11:31:16;24.77;;;15.83;;
58208;SDS011;44006;52.028;4.696;2024-03-22T11:33:41;26.85;;;16.60;;
58208;SDS011;44006;52.028;4.696;2024-03-22T11:36:07;27.50;;;16.58;;
58208;SDS011;44006;52.028;4.696;2024-03-22T11:38:32;31.00;;;17.65;;
58208;SDS011;44006;52.028;4.696;2024-03-22T11:40:58;39.65;;;18.08;;
58208;SDS011;44006;52.028;4.696;2024-03-22T11:43:24;30.90;;;18.20;;
58208;SDS011;44006;52.028;4.696;2024-03-22T11:45:50;32.67;;;17.88;;
58208;SDS011;44006;52.028;4.696;2024-03-22T11:48:15;30.98;;;17.80;;
58208;SDS011;44006;52.028;4.696;2024-03-22T11:50:41;31.95;;;17.75;;
58208;SDS011;44006;52.028;4.696;2024-03-22T11:53:06;30.88;;;17.77;;
58208;SDS011;44006;52.028;4.696;2024-03-22T11:55:32;30.23;;;17.70;;
58208;SDS011;44006;52.028;4.696;2024-03-22T11:57:57;36.85;;;17.27;;
58208;SDS011;44006;52.028;4.696;2024-03-22T12:00:23;30.27;;;17.13;;
58208;SDS011;44006;52.028;4.696;2024-03-22T12:02:50;31.95;;;16.67;;
58208;SDS011;44006;52.028;4.696;2024-03-22T12:05:15;29.00;;;16.77;;
58208;SDS011;44006;52.028;4.696;2024-03-22T12:07:42;33.95;;;17.70;;
58208;SDS011;44006;52.028;4.696;2024-03-22T12:10:07;34.07;;;18.07;;
58208;SDS011;44006;52.028;4.696;2024-03-22T12:12:32;31.65;;;16.77;;
58208;SDS011;44006;52.028;4.696;2024-03-22T12:14:57;32.22;;;17.35;;
58208;SDS011;44006;52.028;4.696;2024-03-22T12:17:23;28.70;;;16.50;;
58208;SDS011;44006;52.028;4.696;2024-03-22T12:19:48;26.47;;;15.53;;
58208;SDS011;44006;52.028;4.696;2024-03-22T12:22:13;28.48;;;16.00;;
58208;SDS011;44006;52.028;4.696;2024-03-22T12:24:38;29.05;;;15.80;;
58208;SDS011;44006;52.028;4.696;2024-03-22T12:27:03;33.03;;;15.33;;
58208;SDS011;44006;52.028;4.696;2024-03-22T12:29:29;31.02;;;15.48;;
58208;SDS011;44006;52.028;4.696;2024-03-22T12:31:56;31.55;;;15.70;;
58208;SDS011;44006;52.028;4.696;2024-03-22T12:34:22;27.15;;;14.55;;
58208;SDS011;44006;52.028;4.696;2024-03-22T12:36:47;25.60;;;14.80;;
58208;SDS011;44006;52.028;4.696;2024-03-22T12:39:12;32.50;;;14.10;;
58208;SDS011;44006;52.028;4.696;2024-03-22T12:41:37;27.58;;;12.90;;
58208;SDS011;44006;52.028;4.696;2024-03-22T12:44:02;27.75;;;11.50;;
58208;SDS011;44006;52.028;4.696;2024-03-22T12:46:28;23.27;;;11.68;;
58208;SDS011;44006;52.028;4.696;2024-03-22T12:48:54;20.10;;;11.00;;
58208;SDS011;44006;52.028;4.696;2024-03-22T12:51:19;20.90;;;9.32;;
58208;SDS011;44006;52.028;4.696;2024-03-22T12:53:44;19.23;;;9.27;;
58208;SDS011;44006;52.028;4.696;2024-03-22T12:56:10;21.75;;;9.80;;
58208;SDS011;44006;52.028;4.696;2024-03-22T12:58:36;21.20;;;9.85;;
58208;SDS011;44006;52.028;4.696;2024-03-22T13:01:01;20.10;;;10.33;;
58208;SDS011;44006;52.028;4.696;2024-03-22T13:03:27;22.50;;;10.20;;
58208;SDS011;44006;52.028;4.696;2024-03-22T13:05:52;20.80;;;11.27;;
58208;SDS011;44006;52.028;4.696;2024-03-22T13:08:18;23.13;;;10.53;;
58208;SDS011;44006;52.028;4.696;2024-03-22T13:10:44;23.60;;;11.85;;
58208;SDS011;44006;52.028;4.696;2024-03-22T13:13:09;25.77;;;12.13;;
58208;SDS011;44006;52.028;4.696;2024-03-22T13:15:35;22.65;;;12.35;;
58208;SDS011;44006;52.028;4.696;2024-03-22T13:18:02;26.10;;;12.35;;
58208;SDS011;44006;52.028;4.696;2024-03-22T13:20:27;24.30;;;13.15;;
58208;SDS011;44006;52.028;4.696;2024-03-22T13:22:52;26.92;;;14.18;;
58208;SDS011;44006;52.028;4.696;2024-03-22T13:25:18;27.27;;;15.13;;
58208;SDS011;44006;52.028;4.696;2024-03-22T13:27:43;25.98;;;14.55;;
58208;SDS011;44006;52.028;4.696;2024-03-22T13:30:09;29.23;;;15.82;;
58208;SDS011;44006;52.028;4.696;2024-03-22T13:32:37;27.23;;;14.52;;
58208;SDS011;44006;52.028;4.696;2024-03-22T13:35:03;32.17;;;15.70;;
58208;SDS011;44006;52.028;4.696;2024-03-22T13:37:28;26.25;;;15.15;;
58208;SDS011;44006;52.028;4.696;2024-03-22T13:39:53;28.20;;;14.73;;
58208;SDS011;44006;52.028;4.696;2024-03-22T13:42:18;23.20;;;13.77;;
58208;SDS011;44006;52.028;4.696;2024-03-22T13:44:44;27.90;;;13.80;;
58208;SDS011;44006;52.028;4.696;2024-03-22T13:47:10;28.42;;;15.57;;
58208;SDS011;44006;52.028;4.696;2024-03-22T13:49:35;25.37;;;13.87;;
58208;SDS011;44006;52.028;4.696;2024-03-22T13:52:00;24.20;;;12.90;;
58208;SDS011;44006;52.028;4.696;2024-03-22T13:54:26;26.43;;;13.63;;
58208;SDS011;44006;52.028;4.696;2024-03-22T13:56:51;24.67;;;11.95;;
58208;SDS011;44006;52.028;4.696;2024-03-22T13:59:16;27.83;;;12.17;;
58208;SDS011;44006;52.028;4.696;2024-03-22T14:01:41;23.70;;;12.40;;
58208;SDS011;44006;52.028;4.696;2024-03-22T14:04:09;26.92;;;11.52;;
58208;SDS011;44006;52.028;4.696;2024-03-22T14:06:35;25.98;;;11.50;;
58208;SDS011;44006;52.028;4.696;2024-03-22T14:09:01;26.33;;;11.57;;
58208;SDS011;44006;52.028;4.696;2024-03-22T14:11:28;24.02;;;11.60;;